createdAt,value
2023-05-10T00:02:01.744Z,100.00
2023-05-10T00:04:32.265Z,100.00
2023-05-10T00:07:00.542Z,100.00
2023-05-10T00:09:28.814Z,100.00
2023-05-10T00:11:59.548Z,100.00
2023-05-10T00:14:27.674Z,100.00
2023-05-10T00:16:56.174Z,100.00
2023-05-10T00:21:19.582Z,100.00
2023-05-10T00:23:47.963Z,100.00
2023-05-10T00:26:17.577Z,100.00
2023-05-10T00:28:51.411Z,100.00
2023-05-10T00:31:20.051Z,100.00
2023-05-10T00:33:48.214Z,100.00
2023-05-10T00:36:16.602Z,100.00
2023-05-10T00:38:46.767Z,100.00
2023-05-10T00:41:14.988Z,100.00
2023-05-10T00:43:43.742Z,100.00
2023-05-10T00:46:16.397Z,100.00
2023-05-10T00:48:45.751Z,100.00
2023-05-10T00:51:16.360Z,100.00
2023-05-10T00:53:48.204Z,100.00
2023-05-10T00:56:17.178Z,100.00
2023-05-10T00:58:46.216Z,100.00
2023-05-10T01:01:15.575Z,100.00
2023-05-10T01:03:45.657Z,100.00
2023-05-10T01:06:17.385Z,100.00
2023-05-10T01:08:47.074Z,100.00
2023-05-10T01:11:16.221Z,100.00
2023-05-10T01:13:48.602Z,100.00
2023-05-10T01:16:16.880Z,100.00
2023-05-10T01:18:48.020Z,100.00
2023-05-10T01:21:23.662Z,100.00
2023-05-10T01:24:34.570Z,100.00
2023-05-10T01:27:27.369Z,100.00
2023-05-10T01:30:45.418Z,100.00
2023-05-10T01:33:20.635Z,100.00
2023-05-10T01:35:56.615Z,100.00
2023-05-10T01:38:32.410Z,100.00
2023-05-10T01:41:10.815Z,100.00
2023-05-10T01:43:46.308Z,100.00
2023-05-10T01:46:19.903Z,100.00
2023-05-10T01:48:52.064Z,100.00
2023-05-10T01:51:26.307Z,100.00
2023-05-10T01:54:02.610Z,100.00
2023-05-10T01:56:35.402Z,100.00
2023-05-10T01:59:10.999Z,100.00
2023-05-10T02:01:40.448Z,100.00
2023-05-10T02:04:11.731Z,100.00
2023-05-10T02:06:43.564Z,100.00
2023-05-10T02:09:16.447Z,100.00
2023-05-10T02:11:45.177Z,100.00
2023-05-10T02:14:16.373Z,100.00
2023-05-10T02:16:45.259Z,100.00
2023-05-10T02:19:16.267Z,100.00
2023-05-10T02:21:48.205Z,100.00
2023-05-10T02:24:18.050Z,100.00
2023-05-10T02:26:52.095Z,100.00
2023-05-10T02:29:21.465Z,100.00
2023-05-10T02:31:50.476Z,100.00
2023-05-10T02:34:21.851Z,100.00
2023-05-10T02:36:54.602Z,100.00
2023-05-10T02:39:29.353Z,100.00
2023-05-10T02:42:01.253Z,100.00
2023-05-10T02:44:32.284Z,100.00
2023-05-10T02:49:48.138Z,100.00
2023-05-10T02:52:21.588Z,100.00
2023-05-10T02:54:56.966Z,100.00
2023-05-10T02:57:35.740Z,100.00
2023-05-10T03:00:04.795Z,100.00
2023-05-10T03:02:33.556Z,100.00
2023-05-10T03:05:04.242Z,100.00
2023-05-10T03:07:32.468Z,100.00
2023-05-10T03:10:08.258Z,100.00
2023-05-10T03:12:55.131Z,100.00
2023-05-10T03:15:31.154Z,100.00
2023-05-10T03:18:05.782Z,100.00
2023-05-10T03:20:38.456Z,100.00
2023-05-10T03:23:13.480Z,100.00
2023-05-10T03:25:44.804Z,100.00
2023-05-10T03:28:14.417Z,100.00
2023-05-10T03:30:44.981Z,100.00
2023-05-10T03:33:15.181Z,100.00
2023-05-10T03:35:48.343Z,100.00
2023-05-10T03:38:17.687Z,100.00
2023-05-10T03:40:48.626Z,100.00
2023-05-10T03:43:16.851Z,100.00
2023-05-10T03:45:45.174Z,100.00
2023-05-10T03:48:14.694Z,100.00
2023-05-10T03:50:43.880Z,100.00
2023-05-10T03:53:13.428Z,100.00
2023-05-10T03:55:41.754Z,100.00
2023-05-10T03:58:13.082Z,100.00
2023-05-10T04:00:46.320Z,100.00
2023-05-10T04:03:16.417Z,100.00
2023-05-10T04:05:44.612Z,100.00
2023-05-10T04:08:15.899Z,100.00
2023-05-10T04:10:44.041Z,100.00
2023-05-10T04:13:14.624Z,100.00
2023-05-10T04:15:42.855Z,100.00
2023-05-10T04:18:11.209Z,100.00
2023-05-10T04:20:39.344Z,100.00
2023-05-10T04:23:07.651Z,100.00
2023-05-10T04:25:37.746Z,100.00
2023-05-10T04:28:06.165Z,100.00
2023-05-10T04:30:36.611Z,100.00
2023-05-10T04:33:05.198Z,100.00
2023-05-10T04:35:33.338Z,100.00
2023-05-10T04:38:01.644Z,100.00
2023-05-10T04:40:32.043Z,100.00
2023-05-10T04:43:03.663Z,100.00
2023-05-10T04:45:31.841Z,100.00
2023-05-10T04:48:00.251Z,100.00
2023-05-10T04:50:28.459Z,100.00
2023-05-10T04:52:56.743Z,100.00
2023-05-10T04:55:25.011Z,100.00
2023-05-10T04:57:53.639Z,100.00
2023-05-10T05:00:23.624Z,100.00
2023-05-10T05:02:52.842Z,100.00
2023-05-10T05:05:21.339Z,100.00
2023-05-10T05:07:49.578Z,100.00
2023-05-10T05:10:20.229Z,100.00
2023-05-10T05:12:48.745Z,100.00
2023-05-10T05:15:17.884Z,100.00
2023-05-10T05:17:47.486Z,100.00
2023-05-10T05:22:28.121Z,100.00
2023-05-10T05:24:56.426Z,100.00
2023-05-10T05:27:25.416Z,100.00
2023-05-10T05:29:55.063Z,100.00
2023-05-10T05:32:23.398Z,100.00
2023-05-10T05:34:52.001Z,100.00
2023-05-10T05:37:26.231Z,100.00
2023-05-10T05:39:55.497Z,100.00
2023-05-10T05:42:26.261Z,100.00
2023-05-10T05:44:54.542Z,100.00
2023-05-10T05:47:22.662Z,100.00
2023-05-10T05:49:51.143Z,100.00
2023-05-10T05:52:19.318Z,100.00
2023-05-10T05:54:48.910Z,100.00
2023-05-10T05:57:17.080Z,100.00
2023-05-10T05:59:45.512Z,100.00
2023-05-10T06:02:14.227Z,100.00
2023-05-10T06:04:44.686Z,100.00
2023-05-10T06:07:13.265Z,100.00
2023-05-10T06:09:44.024Z,100.00
2023-05-10T06:12:13.859Z,100.00
2023-05-10T06:14:44.745Z,100.00
2023-05-10T06:17:12.769Z,100.00
2023-05-10T06:19:40.849Z,100.00
2023-05-10T06:22:09.368Z,100.00
2023-05-10T06:24:37.449Z,100.00
2023-05-10T06:27:05.547Z,100.00
2023-05-10T06:29:35.531Z,100.00
2023-05-10T06:32:04.238Z,100.00
2023-05-10T06:34:32.586Z,100.00
2023-05-10T06:37:01.015Z,100.00
2023-05-10T06:39:29.787Z,100.00
2023-05-10T06:41:57.832Z,100.00
2023-05-10T06:44:31.600Z,100.00
2023-05-10T06:47:01.249Z,100.00
2023-05-10T06:49:31.876Z,100.00
2023-05-10T06:52:00.695Z,100.00
2023-05-10T06:54:28.973Z,100.00
2023-05-10T06:57:01.266Z,100.00
2023-05-10T06:59:31.065Z,100.00
2023-05-10T07:01:59.804Z,100.00
2023-05-10T07:04:29.402Z,100.00
2023-05-10T07:06:58.311Z,100.00
2023-05-10T07:09:29.180Z,100.00
2023-05-10T07:11:58.359Z,100.00
2023-05-10T07:14:26.526Z,100.00
2023-05-10T07:16:54.670Z,100.00
2023-05-10T07:19:22.945Z,100.00
2023-05-10T07:21:54.729Z,100.00
2023-05-10T07:24:23.621Z,100.00
2023-05-10T07:26:51.800Z,100.00
2023-05-10T07:29:20.405Z,100.00
2023-05-10T07:31:51.618Z,100.00
2023-05-10T07:34:19.906Z,100.00
2023-05-10T07:36:48.512Z,100.00
2023-05-10T07:39:26.665Z,100.00
2023-05-10T07:41:55.719Z,100.00
2023-05-10T07:44:23.879Z,100.00
2023-05-10T07:46:52.413Z,100.00
2023-05-10T07:49:21.049Z,100.00
2023-05-10T07:51:51.545Z,100.00
2023-05-10T07:54:21.756Z,100.00
2023-05-10T07:56:51.063Z,100.00
2023-05-10T07:59:19.820Z,100.00
2023-05-10T08:01:48.095Z,100.00
2023-05-10T08:04:16.417Z,100.00
2023-05-10T08:06:47.836Z,100.00
2023-05-10T08:09:18.874Z,100.00
2023-05-10T08:11:48.788Z,100.00
2023-05-10T08:14:16.863Z,100.00
2023-05-10T08:16:45.054Z,100.00
2023-05-10T08:19:13.169Z,100.00
2023-05-10T08:21:43.522Z,100.00
2023-05-10T08:24:11.817Z,100.00
2023-05-10T08:26:42.421Z,100.00
2023-05-10T08:29:12.024Z,100.00
2023-05-10T08:31:40.189Z,100.00
2023-05-10T08:34:08.463Z,99.78
2023-05-10T08:36:39.492Z,100.00
2023-05-10T08:39:19.512Z,100.00
2023-05-10T08:42:00.249Z,99.14
2023-05-10T08:44:31.365Z,97.74
2023-05-10T08:47:01.744Z,94.66
2023-05-10T08:49:33.681Z,92.89
2023-05-10T08:52:05.095Z,85.65
2023-05-10T08:54:36.646Z,83.86
2023-05-10T08:57:05.645Z,83.25
2023-05-10T08:59:35.174Z,81.44
2023-05-10T09:02:04.826Z,78.81
2023-05-10T09:04:33.395Z,82.40
2023-05-10T09:07:02.218Z,83.70
2023-05-10T09:09:31.046Z,83.40
2023-05-10T09:11:59.356Z,85.40
2023-05-10T09:14:28.037Z,89.76
2023-05-10T09:16:58.380Z,93.02
2023-05-10T09:19:26.617Z,93.26
2023-05-10T09:21:55.103Z,89.67
2023-05-10T09:24:27.836Z,86.28
2023-05-10T09:26:56.036Z,85.87
2023-05-10T09:29:26.488Z,82.84
2023-05-10T09:31:56.388Z,80.30
2023-05-10T09:34:33.458Z,81.19
2023-05-10T09:37:05.617Z,77.18
2023-05-10T09:39:34.713Z,74.16
2023-05-10T09:42:05.979Z,75.10
2023-05-10T09:44:34.652Z,75.62
2023-05-10T09:47:03.133Z,75.41
2023-05-10T09:49:34.375Z,79.54
2023-05-10T09:52:06.260Z,83.60
2023-05-10T09:54:36.012Z,84.20
2023-05-10T09:57:06.377Z,83.84
2023-05-10T09:59:36.406Z,83.69
2023-05-10T10:02:07.227Z,83.25
2023-05-10T10:04:43.239Z,82.19
2023-05-10T10:07:11.611Z,79.58
2023-05-10T10:09:41.022Z,78.49
2023-05-10T10:12:11.513Z,78.91
2023-05-10T10:14:39.812Z,73.25
2023-05-10T10:17:09.152Z,69.04
2023-05-10T10:19:38.409Z,64.70
2023-05-10T10:23:26.312Z,66.34
2023-05-10T10:25:56.456Z,63.54
2023-05-10T10:28:34.493Z,65.73
2023-05-10T10:31:18.722Z,65.23
2023-05-10T10:34:01.549Z,61.25
2023-05-10T10:36:29.929Z,58.63
2023-05-10T10:39:05.080Z,55.94
2023-05-10T10:41:35.630Z,61.27
2023-05-10T10:44:37.699Z,62.24
2023-05-10T10:47:25.783Z,59.61
2023-05-10T10:50:04.458Z,58.00
2023-05-10T10:52:34.966Z,55.72
2023-05-10T10:55:07.579Z,55.40
2023-05-10T10:57:45.456Z,56.12
2023-05-10T11:00:31.771Z,53.94
2023-05-10T11:03:01.870Z,54.78
2023-05-10T11:05:39.130Z,52.80
2023-05-10T11:08:22.959Z,50.93
2023-05-10T11:10:55.157Z,53.86
2023-05-10T11:13:31.514Z,50.24
2023-05-10T11:16:01.078Z,51.53
2023-05-10T11:18:30.746Z,48.74
2023-05-10T11:21:01.299Z,49.93
2023-05-10T11:23:33.636Z,52.04
2023-05-10T11:26:03.413Z,52.99
2023-05-10T11:28:31.549Z,51.25
2023-05-10T11:31:00.018Z,51.68
2023-05-10T11:33:28.295Z,49.35
2023-05-10T11:35:56.490Z,48.12
2023-05-10T11:38:24.660Z,49.56
2023-05-10T11:40:55.494Z,45.77
2023-05-10T11:43:31.642Z,44.48
2023-05-10T11:46:00.015Z,46.84
2023-05-10T11:48:28.872Z,47.24
2023-05-10T11:50:58.119Z,49.19
2023-05-10T11:53:28.355Z,47.60
2023-05-10T11:55:56.717Z,48.90
2023-05-10T11:58:25.083Z,49.91
2023-05-10T12:00:54.772Z,50.42
2023-05-10T12:03:23.223Z,51.11
2023-05-10T12:05:53.987Z,51.56
2023-05-10T12:08:24.201Z,49.28
2023-05-10T12:10:52.786Z,53.18
2023-05-10T12:13:22.057Z,55.68
2023-05-10T12:15:50.579Z,55.39
2023-05-10T12:18:26.580Z,55.45
2023-05-10T12:21:05.823Z,58.72
2023-05-10T12:23:34.031Z,57.34
2023-05-10T12:26:05.365Z,58.74
2023-05-10T12:28:34.767Z,59.66
2023-05-10T12:31:03.715Z,60.80
2023-05-10T12:33:42.718Z,63.09
2023-05-10T12:36:11.981Z,61.38
2023-05-10T12:38:44.272Z,61.09
2023-05-10T12:41:14.123Z,61.81
2023-05-10T12:43:42.788Z,62.31
2023-05-10T12:46:12.434Z,57.86
2023-05-10T12:48:43.766Z,57.82
2023-05-10T12:51:14.121Z,57.88
2023-05-10T12:53:45.088Z,58.29
2023-05-10T12:56:14.644Z,60.11
2023-05-10T12:58:43.038Z,60.56
2023-05-10T13:01:11.133Z,59.71
2023-05-10T13:03:39.586Z,60.12
2023-05-10T13:06:09.441Z,59.50
2023-05-10T13:08:37.671Z,59.25
2023-05-10T13:11:06.597Z,59.03
2023-05-10T13:13:35.424Z,57.39
2023-05-10T13:16:03.520Z,57.04
2023-05-10T13:18:31.945Z,55.99
2023-05-10T13:21:00.322Z,53.74
2023-05-10T13:23:29.983Z,52.85
2023-05-10T13:25:58.245Z,53.72
2023-05-10T13:28:27.617Z,53.42
2023-05-10T13:30:55.921Z,55.36
2023-05-10T13:33:26.191Z,54.75
2023-05-10T13:35:55.780Z,52.69
2023-05-10T13:38:24.128Z,54.55
2023-05-10T13:40:54.064Z,54.58
2023-05-10T13:43:22.450Z,54.68
2023-05-10T13:45:50.552Z,52.88
2023-05-10T13:48:21.245Z,54.36
2023-05-10T13:50:49.591Z,54.77
2023-05-10T13:53:17.919Z,54.79
2023-05-10T13:55:46.711Z,56.22
2023-05-10T13:58:16.526Z,54.36
2023-05-10T14:00:45.010Z,54.98
2023-05-10T14:03:13.331Z,55.63
2023-05-10T14:05:46.023Z,55.35
2023-05-10T14:08:15.684Z,53.72
2023-05-10T14:10:44.134Z,53.41
2023-05-10T14:13:12.287Z,53.97
2023-05-10T14:15:42.092Z,53.73
2023-05-10T14:18:10.575Z,53.29
2023-05-10T14:20:38.838Z,53.12
2023-05-10T14:23:07.014Z,53.68
2023-05-10T14:25:36.062Z,52.63
2023-05-10T14:28:07.163Z,51.54
2023-05-10T14:30:36.275Z,52.31
2023-05-10T14:33:05.984Z,52.23
2023-05-10T14:35:36.950Z,52.29
2023-05-10T14:38:05.430Z,52.00
2023-05-10T14:40:35.927Z,51.96
2023-05-10T14:43:04.241Z,51.91
2023-05-10T14:45:32.654Z,54.05
2023-05-10T14:48:01.021Z,52.87
2023-05-10T14:53:04.199Z,51.53
2023-05-10T14:55:33.803Z,54.16
2023-05-10T14:58:01.968Z,53.84
2023-05-10T15:00:33.741Z,51.47
2023-05-10T15:03:02.456Z,51.94
2023-05-10T15:05:32.487Z,50.61
2023-05-10T15:08:01.179Z,51.33
2023-05-10T15:10:29.358Z,50.68
2023-05-10T15:13:01.430Z,50.47
2023-05-10T15:15:29.698Z,50.55
2023-05-10T15:17:57.860Z,49.27
2023-05-10T15:20:26.272Z,50.18
2023-05-10T15:24:28.490Z,48.90
2023-05-10T15:26:56.776Z,48.91
2023-05-10T15:29:27.602Z,50.03
2023-05-10T15:31:55.731Z,49.51
2023-05-10T15:34:23.994Z,49.01
2023-05-10T15:36:56.780Z,48.09
2023-05-10T15:39:25.065Z,48.32
2023-05-10T15:41:54.643Z,48.33
2023-05-10T15:44:22.979Z,48.00
2023-05-10T15:46:52.350Z,47.95
2023-05-10T15:49:20.592Z,48.51
2023-05-10T15:51:50.078Z,47.33
2023-05-10T15:54:18.386Z,48.13
2023-05-10T15:56:46.644Z,48.50
2023-05-10T15:59:16.148Z,47.61
2023-05-10T16:01:44.710Z,47.26
2023-05-10T16:04:15.154Z,49.22
2023-05-10T16:06:43.338Z,50.98
2023-05-10T16:09:14.050Z,49.89
2023-05-10T16:11:44.704Z,52.27
2023-05-10T16:14:13.036Z,50.86
2023-05-10T16:16:43.386Z,50.69
2023-05-10T16:19:11.632Z,51.57
2023-05-10T16:21:39.843Z,52.39
2023-05-10T16:24:08.410Z,51.24
2023-05-10T16:26:40.747Z,50.90
2023-05-10T16:29:09.234Z,50.06
2023-05-10T16:31:37.460Z,50.24
2023-05-10T16:34:14.630Z,51.36
2023-05-10T16:36:43.689Z,51.51
2023-05-10T16:39:11.830Z,52.84
2023-05-10T16:41:40.749Z,53.12
2023-05-10T16:44:11.152Z,52.30
2023-05-10T16:46:39.413Z,53.90
2023-05-10T16:49:09.439Z,53.42
2023-05-10T16:51:38.060Z,54.58
2023-05-10T16:54:06.378Z,56.08
2023-05-10T16:56:34.976Z,56.36
2023-05-10T16:59:03.724Z,57.29
2023-05-10T17:01:31.827Z,56.50
2023-05-10T17:04:00.633Z,56.38
2023-05-10T17:06:30.175Z,57.71
2023-05-10T17:08:58.367Z,57.71
2023-05-10T17:11:29.978Z,57.69
2023-05-10T17:13:58.117Z,59.56
2023-05-10T17:16:26.974Z,58.64
2023-05-10T17:18:57.990Z,61.63
2023-05-10T17:21:26.546Z,59.33
2023-05-10T17:23:55.952Z,59.40
2023-05-10T17:26:27.712Z,60.06
2023-05-10T17:28:56.125Z,59.60
2023-05-10T17:31:27.082Z,60.20
2023-05-10T17:33:55.925Z,60.18
2023-05-10T17:36:24.523Z,61.37
2023-05-10T17:38:52.677Z,61.83
2023-05-10T17:41:23.445Z,63.04
2023-05-10T17:43:51.935Z,63.72
2023-05-10T17:46:23.810Z,62.93
2023-05-10T17:48:52.240Z,63.92
2023-05-10T17:51:20.814Z,65.28
2023-05-10T17:53:48.966Z,65.21
2023-05-10T17:56:17.345Z,64.87
2023-05-10T17:58:47.798Z,64.06
2023-05-10T18:01:17.490Z,63.14
2023-05-10T18:03:46.431Z,64.15
2023-05-10T18:06:15.038Z,63.77
2023-05-10T18:08:43.166Z,63.72
2023-05-10T18:11:14.218Z,63.86
2023-05-10T18:13:42.448Z,63.85
2023-05-10T18:16:13.559Z,64.50
2023-05-10T18:18:42.359Z,65.45
2023-05-10T18:21:13.494Z,65.74
2023-05-10T18:23:41.787Z,66.30
2023-05-10T18:26:13.117Z,67.13
2023-05-10T18:28:43.975Z,68.37
2023-05-10T18:31:13.845Z,67.57
2023-05-10T18:33:42.043Z,68.41
2023-05-10T18:36:12.756Z,69.65
2023-05-10T18:38:41.418Z,69.44
2023-05-10T18:41:12.362Z,69.25
2023-05-10T18:43:42.513Z,70.93
2023-05-10T18:46:10.876Z,71.39
2023-05-10T18:48:40.793Z,75.04
2023-05-10T18:51:09.088Z,77.92
2023-05-10T18:53:38.676Z,79.64
2023-05-10T18:56:07.140Z,81.49
2023-05-10T18:58:35.886Z,82.58
2023-05-10T19:01:04.061Z,83.65
2023-05-10T19:03:32.273Z,83.83
2023-05-10T19:06:01.904Z,84.87
2023-05-10T19:08:32.442Z,84.80
2023-05-10T19:11:02.913Z,85.47
2023-05-10T19:13:31.160Z,86.21
2023-05-10T19:16:06.178Z,87.39
2023-05-10T19:18:34.675Z,87.93
2023-05-10T19:21:08.464Z,89.09
2023-05-10T19:23:39.331Z,89.92
2023-05-10T19:26:09.336Z,90.60
2023-05-10T19:28:59.335Z,91.21
2023-05-10T19:31:43.313Z,91.25
2023-05-10T19:34:29.120Z,92.31
2023-05-10T19:37:07.995Z,92.18
2023-05-10T19:39:38.812Z,91.55
2023-05-10T19:42:07.145Z,91.37
2023-05-10T19:45:27.113Z,91.50
2023-05-10T19:48:07.726Z,90.25
2023-05-10T19:50:45.005Z,90.71
2023-05-10T19:53:16.554Z,89.79
2023-05-10T19:55:47.707Z,90.05
2023-05-10T19:58:15.843Z,89.17
2023-05-10T20:00:43.982Z,88.92
2023-05-10T20:03:12.215Z,89.17
2023-05-10T20:05:40.424Z,89.43
2023-05-10T20:08:10.891Z,89.73
2023-05-10T20:10:40.781Z,90.17
2023-05-10T20:13:11.435Z,91.09
2023-05-10T20:15:39.802Z,91.13
2023-05-10T20:18:10.160Z,91.07
2023-05-10T20:20:38.381Z,92.08
2023-05-10T20:25:28.813Z,92.94
2023-05-10T20:28:06.907Z,93.43
2023-05-10T20:30:36.475Z,94.18
2023-05-10T20:33:04.750Z,95.10
2023-05-10T20:35:34.220Z,95.49
2023-05-10T20:38:02.628Z,97.04
2023-05-10T20:40:33.056Z,97.98
2023-05-10T20:43:01.728Z,99.02
2023-05-10T20:45:30.168Z,100.00
2023-05-10T20:47:58.629Z,100.00
2023-05-10T20:50:27.692Z,100.00
2023-05-10T20:52:55.851Z,100.00
2023-05-10T20:55:24.593Z,100.00
2023-05-10T20:57:54.024Z,100.00
2023-05-10T21:00:22.705Z,100.00
2023-05-10T21:02:53.259Z,100.00
2023-05-10T21:05:21.397Z,100.00
2023-05-10T21:07:50.025Z,100.00
2023-05-10T21:10:18.412Z,100.00
2023-05-10T21:12:46.774Z,100.00
2023-05-10T21:15:17.623Z,100.00
2023-05-10T21:17:46.302Z,100.00
2023-05-10T21:20:15.223Z,100.00
2023-05-10T21:22:45.817Z,100.00
2023-05-10T21:25:14.185Z,100.00
2023-05-10T21:27:42.320Z,100.00
2023-05-10T21:30:11.246Z,100.00
2023-05-10T21:32:40.928Z,100.00
2023-05-10T21:35:10.109Z,100.00
2023-05-10T21:37:40.725Z,100.00
2023-05-10T21:40:09.745Z,100.00
2023-05-10T21:42:37.783Z,100.00
2023-05-10T21:45:07.318Z,100.00
2023-05-10T21:47:37.874Z,100.00
2023-05-10T21:50:10.163Z,100.00
2023-05-10T21:52:38.856Z,100.00
2023-05-10T21:55:10.593Z,100.00
2023-05-10T21:57:38.742Z,100.00
2023-05-10T22:00:08.700Z,100.00
2023-05-10T22:02:36.925Z,100.00
2023-05-10T22:05:07.393Z,100.00
2023-05-10T22:07:38.648Z,100.00
2023-05-10T22:10:08.007Z,100.00
2023-05-10T22:12:36.188Z,100.00
2023-05-10T22:17:36.054Z,100.00
2023-05-10T22:20:04.349Z,100.00
2023-05-10T22:22:33.948Z,100.00
2023-05-10T22:25:02.357Z,100.00
2023-05-10T22:27:30.614Z,100.00
2023-05-10T22:29:58.794Z,100.00
2023-05-10T22:32:27.188Z,100.00
2023-05-10T22:34:55.849Z,100.00
2023-05-10T22:37:24.163Z,100.00
2023-05-10T22:39:53.762Z,100.00
2023-05-10T22:42:22.140Z,100.00
2023-05-10T22:44:50.294Z,100.00
2023-05-10T22:47:21.404Z,100.00
2023-05-10T22:49:52.264Z,100.00
2023-05-10T22:52:24.239Z,100.00
2023-05-10T22:54:53.745Z,100.00
2023-05-10T22:57:22.062Z,100.00
2023-05-10T22:59:50.509Z,100.00
2023-05-10T23:02:18.882Z,100.00
2023-05-10T23:04:48.388Z,100.00
2023-05-10T23:07:16.769Z,100.00
2023-05-10T23:09:47.652Z,100.00
2023-05-10T23:12:19.598Z,100.00
2023-05-10T23:14:47.756Z,100.00
2023-05-10T23:17:15.925Z,100.00
2023-05-10T23:19:46.651Z,100.00
2023-05-10T23:22:15.067Z,100.00
2023-05-10T23:24:43.183Z,100.00
2023-05-10T23:27:14.721Z,100.00
2023-05-10T23:29:44.231Z,100.00
2023-05-10T23:32:12.530Z,100.00
2023-05-10T23:34:40.749Z,100.00
2023-05-10T23:37:08.926Z,100.00
2023-05-10T23:39:37.163Z,100.00
2023-05-10T23:42:05.354Z,100.00
2023-05-10T23:44:33.701Z,100.00
2023-05-10T23:47:03.303Z,100.00
2023-05-10T23:49:33.921Z,100.00
2023-05-10T23:52:02.100Z,100.00
2023-05-10T23:54:30.330Z,100.00
2023-05-10T23:56:58.420Z,100.00
2023-05-10T23:59:26.740Z,100.00
